Westville, Indiana
Current Conditions -  °F | °C
As of 8:56 AM on Friday 24 Oct 2014 (Local Time) from KVPZ Reporting Station
Overcast Overcast  
Wind Chill: 52°   Ceiling: 2400
Heat Index: 52°   Visibility: 10mi
Dew Point: 46°   Wind: 6mph
Humidity: 80%   Direction: 230°SW
Pressure: 30.08"   Gusts: NA
Location:  41.54°N, 86.9°W
Report Text: KVPZ 241356Z AUTO 23005KT 10SM OVC024 11/08 A3008 RMK AO2 SLP189 T01110078 TSNO
Loading
Personal Weather Stations






























Interactive Weather Map
Tropical Storm Tracking
New forecast layout! Learn more

10-Day Weather Forecast

Advertisements
Track Severe Weather on mobile